createdAt,value
2017-08-09T00:02:17.306Z,51.87
2017-08-09T00:04:49.960Z,51.86
2017-08-09T00:07:22.557Z,51.93
2017-08-09T00:09:57.489Z,51.90
2017-08-09T00:12:30.012Z,51.82
2017-08-09T00:15:02.036Z,51.82
2017-08-09T00:17:33.565Z,51.79
2017-08-09T00:20:06.387Z,51.73
2017-08-09T00:22:38.149Z,51.82
2017-08-09T00:25:10.448Z,51.72
2017-08-09T00:27:43.091Z,51.71
2017-08-09T00:30:15.272Z,51.65
2017-08-09T00:32:46.849Z,51.63
2017-08-09T00:35:18.870Z,51.69
2017-08-09T00:37:50.878Z,51.69
2017-08-09T00:40:23.141Z,51.69
2017-08-09T00:42:56.734Z,51.69
2017-08-09T00:45:31.090Z,51.63
2017-08-09T00:48:02.495Z,51.62
2017-08-09T00:50:35.318Z,51.57
2017-08-09T00:53:09.068Z,51.60
2017-08-09T00:55:40.663Z,51.70
2017-08-09T00:58:12.609Z,51.57
2017-08-09T01:00:44.497Z,51.59
2017-08-09T01:03:16.531Z,51.53
2017-08-09T01:05:47.817Z,51.74
2017-08-09T01:08:20.092Z,51.65
2017-08-09T01:10:51.841Z,51.63
2017-08-09T01:13:24.322Z,51.60
2017-08-09T01:16:00.251Z,51.63
2017-08-09T01:18:36.234Z,51.63
2017-08-09T01:21:11.967Z,51.63
2017-08-09T01:23:47.554Z,51.64
2017-08-09T01:26:20.794Z,51.69
2017-08-09T01:28:58.801Z,51.62
2017-08-09T01:31:31.215Z,51.60
2017-08-09T01:34:05.152Z,51.63
2017-08-09T01:36:37.329Z,51.66
2017-08-09T01:39:14.502Z,51.68
2017-08-09T01:41:49.995Z,51.63
2017-08-09T01:44:22.135Z,51.70
2017-08-09T01:46:56.545Z,51.66
2017-08-09T01:50:35.215Z,51.71
2017-08-09T01:53:09.414Z,51.65
2017-08-09T01:55:41.511Z,51.55
2017-08-09T01:58:17.079Z,51.60
2017-08-09T02:00:56.955Z,51.58
2017-08-09T02:03:29.146Z,51.57
2017-08-09T02:06:06.830Z,51.56
2017-08-09T02:08:38.284Z,51.53
2017-08-09T02:11:10.435Z,51.71
2017-08-09T02:13:42.260Z,51.59
2017-08-09T02:16:13.855Z,51.64
2017-08-09T02:18:47.090Z,51.64
2017-08-09T02:21:23.948Z,51.68
2017-08-09T02:24:16.271Z,51.66
2017-08-09T02:26:51.024Z,51.68
2017-08-09T02:29:33.152Z,51.74
2017-08-09T02:32:07.346Z,51.66
2017-08-09T02:34:40.304Z,51.71
2017-08-09T02:37:15.519Z,51.71
2017-08-09T02:42:29.765Z,51.78
2017-08-09T02:45:04.718Z,51.80
2017-08-09T02:47:36.200Z,51.84
2017-08-09T02:50:07.950Z,51.91
2017-08-09T02:52:40.022Z,51.94
2017-08-09T02:55:12.918Z,51.92
2017-08-09T02:57:45.645Z,51.99
2017-08-09T03:00:23.984Z,52.00
2017-08-09T03:02:58.812Z,52.02
2017-08-09T03:05:31.729Z,52.00
2017-08-09T03:08:03.765Z,52.01
2017-08-09T03:10:37.343Z,51.95
2017-08-09T03:13:09.039Z,51.97
2017-08-09T03:15:42.661Z,51.95
2017-08-09T03:18:14.632Z,51.96
2017-08-09T03:20:47.430Z,51.98
2017-08-09T03:23:18.701Z,51.95
2017-08-09T03:25:53.665Z,51.90
2017-08-09T03:28:33.453Z,51.94
2017-08-09T03:31:05.014Z,51.91
2017-08-09T03:33:38.052Z,51.89
2017-08-09T03:36:10.602Z,51.90
2017-08-09T03:38:42.959Z,51.88
2017-08-09T03:41:15.023Z,51.95
2017-08-09T03:43:46.252Z,51.94
2017-08-09T03:46:26.961Z,51.93
2017-08-09T03:49:11.461Z,51.90
2017-08-09T03:51:46.931Z,51.93
2017-08-09T03:54:25.294Z,51.97
2017-08-09T03:57:05.942Z,52.01
2017-08-09T03:59:39.163Z,52.05
2017-08-09T04:02:12.945Z,52.08
2017-08-09T04:04:47.406Z,52.04
2017-08-09T04:07:22.223Z,52.14
2017-08-09T04:09:59.483Z,52.15
2017-08-09T04:12:33.467Z,52.19
2017-08-09T04:15:06.394Z,52.21
2017-08-09T04:17:40.640Z,52.22
2017-08-09T04:20:12.791Z,52.30
2017-08-09T04:22:44.535Z,52.32
2017-08-09T04:25:19.407Z,52.31
2017-08-09T04:27:51.353Z,52.36
2017-08-09T04:30:22.841Z,52.37
2017-08-09T04:32:59.349Z,52.41
2017-08-09T04:35:31.571Z,52.43
2017-08-09T04:38:06.195Z,52.37
2017-08-09T04:40:38.174Z,52.48
2017-08-09T04:43:15.362Z,52.48
2017-08-09T04:45:58.059Z,52.54
2017-08-09T04:48:33.530Z,52.51
2017-08-09T04:51:08.073Z,52.54
2017-08-09T04:53:40.185Z,52.59
2017-08-09T04:56:12.655Z,52.66
2017-08-09T04:58:46.848Z,52.74
2017-08-09T05:01:18.004Z,52.68
2017-08-09T05:03:52.641Z,52.69
2017-08-09T05:06:27.191Z,52.69
2017-08-09T05:09:06.509Z,52.80
2017-08-09T05:11:41.339Z,52.77
2017-08-09T05:14:14.557Z,52.80
2017-08-09T05:16:52.958Z,52.79
2017-08-09T05:19:28.631Z,52.88
2017-08-09T05:22:10.775Z,52.85
2017-08-09T05:24:45.975Z,53.00
2017-08-09T05:27:19.746Z,53.23
2017-08-09T05:29:52.241Z,53.31
2017-08-09T05:32:29.028Z,53.66
2017-08-09T05:35:07.062Z,53.54
2017-08-09T05:37:41.128Z,53.67
2017-08-09T05:40:14.554Z,53.95
2017-08-09T05:42:47.124Z,53.95
2017-08-09T05:45:23.204Z,53.93
2017-08-09T05:48:04.357Z,53.97
2017-08-09T05:50:40.752Z,53.93
2017-08-09T05:53:13.979Z,53.84
2017-08-09T05:55:48.370Z,53.93
2017-08-09T05:58:43.791Z,53.86
2017-08-09T06:01:19.772Z,53.83
2017-08-09T06:03:52.049Z,53.78
2017-08-09T06:06:25.263Z,53.68
2017-08-09T06:08:58.655Z,53.66
2017-08-09T06:11:33.908Z,53.62
2017-08-09T06:14:06.194Z,53.52
2017-08-09T06:16:42.273Z,53.43
2017-08-09T06:19:22.699Z,53.26
2017-08-09T06:21:58.501Z,52.94
2017-08-09T06:24:33.192Z,52.67
2017-08-09T06:27:07.136Z,52.43
2017-08-09T06:29:39.444Z,52.32
2017-08-09T06:32:44.445Z,52.36
2017-08-09T06:35:16.387Z,52.37
2017-08-09T06:37:52.682Z,52.28
2017-08-09T06:40:30.571Z,52.33
2017-08-09T06:43:02.978Z,52.35
2017-08-09T06:45:35.321Z,52.25
2017-08-09T06:48:07.165Z,52.14
2017-08-09T06:50:41.269Z,52.06
2017-08-09T06:53:12.854Z,52.00
2017-08-09T06:55:45.228Z,51.85
2017-08-09T06:58:16.985Z,51.73
2017-08-09T07:00:52.104Z,51.67
2017-08-09T07:03:28.736Z,51.80
2017-08-09T07:06:08.699Z,51.74
2017-08-09T07:08:44.312Z,51.76
2017-08-09T07:11:19.662Z,51.76
2017-08-09T07:14:06.747Z,51.52
2017-08-09T07:16:38.894Z,51.49
2017-08-09T07:19:10.479Z,51.39
2017-08-09T07:21:42.892Z,51.18
2017-08-09T07:24:14.883Z,51.16
2017-08-09T07:26:48.714Z,51.16
2017-08-09T07:29:23.571Z,51.07
2017-08-09T07:32:04.274Z,50.94
2017-08-09T07:34:43.115Z,50.81
2017-08-09T07:37:17.938Z,50.63
2017-08-09T07:39:51.702Z,50.56
2017-08-09T07:42:24.975Z,50.54
2017-08-09T07:44:59.935Z,50.54
2017-08-09T07:47:34.591Z,50.81
2017-08-09T07:50:08.519Z,50.64
2017-08-09T07:52:40.670Z,50.55
2017-08-09T07:55:13.052Z,50.89
2017-08-09T07:57:45.647Z,50.60
2017-08-09T08:00:18.869Z,50.26
2017-08-09T08:02:50.403Z,50.28
2017-08-09T08:05:22.614Z,50.31
2017-08-09T08:08:02.322Z,49.96
2017-08-09T08:10:35.843Z,50.03
2017-08-09T08:13:08.664Z,49.98
2017-08-09T08:15:41.943Z,49.89
2017-08-09T08:18:14.871Z,50.08
2017-08-09T08:20:46.374Z,49.89
2017-08-09T08:23:20.546Z,49.79
2017-08-09T08:26:03.736Z,49.44
2017-08-09T08:28:36.429Z,49.24
2017-08-09T08:31:08.832Z,49.20
2017-08-09T08:33:41.739Z,48.87
2017-08-09T08:36:13.672Z,48.66
2017-08-09T08:38:57.485Z,48.00
2017-08-09T08:41:31.288Z,47.98
2017-08-09T08:44:08.004Z,47.54
2017-08-09T08:46:39.849Z,47.55
2017-08-09T08:49:14.703Z,47.28
2017-08-09T08:51:48.101Z,47.04
2017-08-09T08:54:21.318Z,47.19
2017-08-09T08:56:56.461Z,46.67
2017-08-09T08:59:29.584Z,46.91
2017-08-09T09:02:02.938Z,46.61
2017-08-09T09:04:36.813Z,46.24
2017-08-09T09:07:10.314Z,46.46
2017-08-09T09:09:44.816Z,46.01
2017-08-09T09:12:17.152Z,45.98
2017-08-09T09:14:49.310Z,45.50
2017-08-09T09:17:22.863Z,45.53
2017-08-09T09:19:56.669Z,45.74
2017-08-09T09:22:30.178Z,46.03
2017-08-09T09:25:04.160Z,45.82
2017-08-09T09:27:36.254Z,45.33
2017-08-09T09:30:12.047Z,45.19
2017-08-09T09:32:47.174Z,45.06
2017-08-09T09:35:19.263Z,45.26
2017-08-09T09:37:57.517Z,45.05
2017-08-09T09:40:34.272Z,45.26
2017-08-09T09:43:06.712Z,45.26
2017-08-09T09:45:40.017Z,45.48
2017-08-09T09:48:18.749Z,45.37
2017-08-09T09:50:50.496Z,45.31
2017-08-09T09:53:26.764Z,45.45
2017-08-09T09:56:01.030Z,45.32
2017-08-09T09:58:33.248Z,45.25
2017-08-09T10:01:07.606Z,45.28
2017-08-09T10:03:40.708Z,45.27
2017-08-09T10:06:18.832Z,45.28
2017-08-09T10:08:52.278Z,45.33
2017-08-09T10:11:26.984Z,45.26
2017-08-09T10:14:03.190Z,45.32
2017-08-09T10:16:36.014Z,45.37
2017-08-09T10:19:11.674Z,45.29
2017-08-09T10:21:44.262Z,45.23
2017-08-09T10:24:16.188Z,45.30
2017-08-09T10:26:48.068Z,45.28
2017-08-09T10:29:19.915Z,45.10
2017-08-09T10:31:51.655Z,45.18
2017-08-09T10:34:23.570Z,45.18
2017-08-09T10:36:59.791Z,44.89
2017-08-09T10:39:32.293Z,45.00
2017-08-09T10:42:06.739Z,44.97
2017-08-09T10:44:51.945Z,44.91
2017-08-09T10:47:24.117Z,44.95
2017-08-09T10:50:00.945Z,44.84
2017-08-09T10:52:36.775Z,44.88
2017-08-09T10:55:13.078Z,44.67
2017-08-09T10:57:44.731Z,44.56
2017-08-09T11:00:16.253Z,44.42
2017-08-09T11:02:49.474Z,44.20
2017-08-09T11:05:24.426Z,44.22
2017-08-09T11:08:00.513Z,44.13
2017-08-09T11:10:33.657Z,43.86
2017-08-09T11:13:07.523Z,43.87
2017-08-09T11:15:40.874Z,43.65
2017-08-09T11:18:12.950Z,43.45
2017-08-09T11:20:44.678Z,43.53
2017-08-09T11:23:21.033Z,43.70
2017-08-09T11:26:00.325Z,43.84
2017-08-09T11:28:32.959Z,44.03
2017-08-09T11:31:05.105Z,44.09
2017-08-09T11:33:36.983Z,43.97
2017-08-09T11:36:08.870Z,44.29
2017-08-09T11:38:43.482Z,44.32
2017-08-09T11:41:17.631Z,44.39
2017-08-09T11:43:54.828Z,44.32
2017-08-09T11:46:26.980Z,44.36
2017-08-09T11:49:07.684Z,44.34
2017-08-09T11:55:35.973Z,44.06
2017-08-09T11:58:11.699Z,44.11
2017-08-09T12:00:51.962Z,43.96
2017-08-09T12:03:24.624Z,43.84
2017-08-09T12:05:59.011Z,43.99
2017-08-09T12:08:37.740Z,43.18
2017-08-09T12:11:09.389Z,43.33
2017-08-09T12:13:42.876Z,43.62
2017-08-09T12:16:16.869Z,43.79
2017-08-09T12:18:53.298Z,43.26
2017-08-09T12:21:26.081Z,43.31
2017-08-09T12:24:03.864Z,42.61
2017-08-09T12:29:19.130Z,42.88
2017-08-09T12:31:52.620Z,42.65
2017-08-09T12:34:27.277Z,42.92
2017-08-09T12:37:04.392Z,42.92
2017-08-09T12:39:35.994Z,42.89
2017-08-09T12:42:09.311Z,43.16
2017-08-09T12:44:41.141Z,43.22
2017-08-09T12:47:14.753Z,43.15
2017-08-09T12:49:48.613Z,43.16
2017-08-09T12:52:20.686Z,43.28
2017-08-09T12:54:57.887Z,43.05
2017-08-09T12:57:32.425Z,43.18
2017-08-09T13:00:04.185Z,43.08
2017-08-09T13:02:37.301Z,43.11
2017-08-09T13:05:09.115Z,43.23
2017-08-09T13:07:42.019Z,43.04
2017-08-09T13:10:15.940Z,42.98
2017-08-09T13:12:49.941Z,42.93
2017-08-09T13:15:23.977Z,42.98
2017-08-09T13:17:59.946Z,43.42
2017-08-09T13:20:33.183Z,43.42
2017-08-09T13:23:05.441Z,43.02
2017-08-09T13:25:37.608Z,43.33
2017-08-09T13:28:10.314Z,43.44
2017-08-09T13:30:42.835Z,43.28
2017-08-09T13:33:15.842Z,43.12
2017-08-09T13:35:48.169Z,43.25
2017-08-09T13:38:19.878Z,43.29
2017-08-09T13:40:52.974Z,43.33
2017-08-09T13:43:25.264Z,43.62
2017-08-09T13:46:01.372Z,43.54
2017-08-09T13:48:33.476Z,43.52
2017-08-09T13:51:05.111Z,43.29
2017-08-09T13:53:38.367Z,43.35
2017-08-09T13:56:10.142Z,43.41
2017-08-09T13:58:42.663Z,43.34
2017-08-09T14:01:15.604Z,43.45
2017-08-09T14:03:47.525Z,43.41
2017-08-09T14:06:20.305Z,43.21
2017-08-09T14:09:06.224Z,43.12
2017-08-09T14:11:38.885Z,43.15
2017-08-09T14:14:10.638Z,43.37
2017-08-09T14:16:47.718Z,43.28
2017-08-09T14:19:21.161Z,43.25
2017-08-09T14:21:53.731Z,43.16
2017-08-09T14:24:28.461Z,43.05
2017-08-09T14:27:05.471Z,43.31
2017-08-09T14:29:39.565Z,42.93
2017-08-09T14:32:11.834Z,42.95
2017-08-09T14:34:45.039Z,42.69
2017-08-09T14:37:17.504Z,42.45
2017-08-09T14:39:52.509Z,42.98
2017-08-09T14:42:23.954Z,43.45
2017-08-09T14:45:02.420Z,43.63
2017-08-09T14:47:36.324Z,43.68
2017-08-09T14:50:19.458Z,43.49
2017-08-09T14:53:00.345Z,43.56
2017-08-09T14:55:44.721Z,43.68
2017-08-09T14:58:19.886Z,43.64
2017-08-09T15:00:52.982Z,43.44
2017-08-09T15:03:27.510Z,43.43
2017-08-09T15:06:02.304Z,43.51
2017-08-09T15:08:37.419Z,43.45
2017-08-09T15:11:10.261Z,43.39
2017-08-09T15:13:44.768Z,43.31
2017-08-09T15:16:18.885Z,43.51
2017-08-09T15:18:51.310Z,43.16
2017-08-09T15:21:24.674Z,42.89
2017-08-09T15:24:03.750Z,43.03
2017-08-09T15:26:36.958Z,43.07
2017-08-09T15:29:09.917Z,43.06
2017-08-09T15:31:47.178Z,42.74
2017-08-09T15:34:19.301Z,42.55
2017-08-09T15:36:52.530Z,42.74
2017-08-09T15:39:25.790Z,42.84
2017-08-09T15:41:58.217Z,42.86
2017-08-09T15:44:30.514Z,42.63
2017-08-09T15:47:04.221Z,42.02
2017-08-09T15:49:41.968Z,41.83
2017-08-09T15:52:15.569Z,42.40
2017-08-09T15:54:47.976Z,42.45
2017-08-09T15:57:19.974Z,42.33
2017-08-09T16:00:08.379Z,42.56
2017-08-09T16:02:43.553Z,42.49
2017-08-09T16:14:00.860Z,42.63
2017-08-09T16:16:37.779Z,42.45
2017-08-09T16:19:11.727Z,42.19
2017-08-09T16:21:44.575Z,41.99
2017-08-09T16:24:16.888Z,41.80
2017-08-09T16:26:50.014Z,41.77
2017-08-09T16:29:21.817Z,41.77
2017-08-09T16:32:00.786Z,42.45
2017-08-09T16:34:33.167Z,42.15
2017-08-09T16:37:05.181Z,42.32
2017-08-09T16:39:44.393Z,42.11
2017-08-09T16:42:17.471Z,42.33
2017-08-09T16:44:50.203Z,42.40
2017-08-09T16:47:22.535Z,42.76
2017-08-09T16:50:08.703Z,42.88
2017-08-09T16:52:43.317Z,42.38
2017-08-09T16:55:16.512Z,41.99
2017-08-09T16:57:51.603Z,41.46
2017-08-09T17:00:27.749Z,41.51
2017-08-09T17:03:04.167Z,41.55
2017-08-09T17:05:39.838Z,41.53
2017-08-09T17:08:16.868Z,41.22
2017-08-09T17:10:50.041Z,41.44
2017-08-09T17:13:22.381Z,41.32
2017-08-09T17:15:59.243Z,41.39
2017-08-09T17:18:31.702Z,41.10
2017-08-09T17:21:03.361Z,41.19
2017-08-09T17:23:35.276Z,41.24
2017-08-09T17:26:07.521Z,41.31
2017-08-09T17:28:43.457Z,41.17
2017-08-09T17:31:20.348Z,41.10
2017-08-09T17:33:51.773Z,41.47
2017-08-09T17:36:23.915Z,41.20
2017-08-09T17:39:00.098Z,41.25
2017-08-09T17:41:34.625Z,41.27
2017-08-09T17:44:06.841Z,41.37
2017-08-09T17:46:41.192Z,41.29
2017-08-09T17:49:14.996Z,41.70
2017-08-09T17:51:47.047Z,41.65
2017-08-09T17:54:21.563Z,41.46
2017-08-09T17:57:03.828Z,42.14
2017-08-09T17:59:36.014Z,42.48
2017-08-09T18:02:07.931Z,41.88
2017-08-09T18:04:41.759Z,42.19
2017-08-09T18:07:13.291Z,42.43
2017-08-09T18:09:45.767Z,42.13
2017-08-09T18:12:21.237Z,41.78
2017-08-09T18:14:58.438Z,41.88
2017-08-09T18:17:31.267Z,42.00
2017-08-09T18:20:08.830Z,41.95
2017-08-09T18:22:41.403Z,41.94
2017-08-09T18:25:13.926Z,41.96
2017-08-09T18:27:45.305Z,42.16
2017-08-09T18:30:23.392Z,42.15
2017-08-09T18:32:56.437Z,42.19
2017-08-09T18:35:28.412Z,42.37
2017-08-09T18:38:06.651Z,42.50
2017-08-09T18:40:38.433Z,42.41
2017-08-09T18:43:10.800Z,42.55
2017-08-09T18:45:42.790Z,42.46
2017-08-09T18:48:16.685Z,42.43
2017-08-09T18:50:49.020Z,42.36
2017-08-09T18:53:25.396Z,42.52
2017-08-09T18:56:07.727Z,42.60
2017-08-09T18:58:40.835Z,42.67
2017-08-09T19:01:13.366Z,42.83
2017-08-09T19:03:46.860Z,43.07
2017-08-09T19:06:19.359Z,43.07
2017-08-09T19:08:50.938Z,42.97
2017-08-09T19:11:23.021Z,42.85
2017-08-09T19:13:59.519Z,42.68
2017-08-09T19:16:32.954Z,42.70
2017-08-09T19:19:04.826Z,42.79
2017-08-09T19:21:38.469Z,42.77
2017-08-09T19:24:11.268Z,42.81
2017-08-09T19:26:42.792Z,42.61
2017-08-09T19:29:15.813Z,42.82
2017-08-09T19:31:48.387Z,43.00
2017-08-09T19:34:21.599Z,43.18
2017-08-09T19:36:58.039Z,43.31
2017-08-09T19:42:12.536Z,43.62
2017-08-09T19:44:45.773Z,43.66
2017-08-09T19:47:22.754Z,43.68
2017-08-09T19:49:57.843Z,43.75
2017-08-09T19:52:29.936Z,43.93
2017-08-09T19:55:04.743Z,44.07
2017-08-09T19:57:39.052Z,44.13
2017-08-09T20:00:12.769Z,44.08
2017-08-09T20:02:44.560Z,44.05
2017-08-09T20:05:16.924Z,44.00
2017-08-09T20:07:49.350Z,43.84
2017-08-09T20:10:22.859Z,43.86
2017-08-09T20:13:00.059Z,43.90
2017-08-09T20:15:31.802Z,43.99
2017-08-09T20:18:05.061Z,43.83
2017-08-09T20:20:39.902Z,44.28
2017-08-09T20:23:19.610Z,44.81
2017-08-09T20:25:51.850Z,45.21
2017-08-09T20:28:26.263Z,45.73
2017-08-09T20:31:01.260Z,45.49
2017-08-09T20:33:38.486Z,45.14
2017-08-09T20:36:10.432Z,44.71
2017-08-09T20:38:42.363Z,45.13
2017-08-09T20:41:14.892Z,45.08
2017-08-09T20:43:46.855Z,45.22
2017-08-09T20:46:20.392Z,45.28
2017-08-09T20:48:52.336Z,45.47
2017-08-09T20:51:27.089Z,45.61
2017-08-09T20:54:01.381Z,45.80
2017-08-09T20:56:33.502Z,45.98
2017-08-09T20:59:05.154Z,46.17
2017-08-09T21:01:37.658Z,46.36
2017-08-09T21:04:10.078Z,46.53
2017-08-09T21:06:42.005Z,46.84
2017-08-09T21:09:16.748Z,46.86
2017-08-09T21:11:48.318Z,46.94
2017-08-09T21:14:20.031Z,47.04
2017-08-09T21:16:58.226Z,47.31
2017-08-09T21:19:31.381Z,47.59
2017-08-09T21:22:04.365Z,47.64
2017-08-09T21:24:36.336Z,47.70
2017-08-09T21:27:09.888Z,47.80
2017-08-09T21:29:41.998Z,48.10
2017-08-09T21:32:14.402Z,48.02
2017-08-09T21:34:46.746Z,48.55
2017-08-09T21:37:19.432Z,48.59
2017-08-09T21:39:51.842Z,48.62
2017-08-09T21:42:24.604Z,48.58
2017-08-09T21:44:58.615Z,48.59
2017-08-09T21:47:30.883Z,48.69
2017-08-09T21:50:03.445Z,48.67
2017-08-09T21:52:35.728Z,48.88
2017-08-09T21:55:08.030Z,48.89
2017-08-09T21:57:43.104Z,48.87
2017-08-09T22:00:17.521Z,48.97
2017-08-09T22:02:50.936Z,49.00
2017-08-09T22:05:26.492Z,49.10
2017-08-09T22:08:02.365Z,49.08
2017-08-09T22:10:38.380Z,49.17
2017-08-09T22:13:10.485Z,49.18
2017-08-09T22:15:42.138Z,49.29
2017-08-09T22:18:15.039Z,49.36
2017-08-09T22:20:47.165Z,49.42
2017-08-09T22:23:23.039Z,49.46
2017-08-09T22:25:58.257Z,49.55
2017-08-09T22:28:30.878Z,49.56
2017-08-09T22:31:02.917Z,49.58
2017-08-09T22:33:35.165Z,49.73
2017-08-09T22:36:07.125Z,49.71
2017-08-09T22:38:38.702Z,49.73
2017-08-09T22:41:10.650Z,49.86
2017-08-09T22:43:42.399Z,49.93
2017-08-09T22:46:20.424Z,50.03
2017-08-09T22:48:54.304Z,50.05
2017-08-09T22:51:29.294Z,50.14
2017-08-09T22:54:04.910Z,50.12
2017-08-09T22:56:38.372Z,50.21
2017-08-09T22:59:10.591Z,50.37
2017-08-09T23:01:45.951Z,50.38
2017-08-09T23:04:17.653Z,50.41
2017-08-09T23:06:52.767Z,50.62
2017-08-09T23:09:27.509Z,50.63
2017-08-09T23:12:03.022Z,50.58
2017-08-09T23:14:34.422Z,50.60
2017-08-09T23:17:06.061Z,50.61
2017-08-09T23:19:37.728Z,50.78
2017-08-09T23:22:09.532Z,50.87
2017-08-09T23:24:42.417Z,50.86
2017-08-09T23:27:14.331Z,50.94
2017-08-09T23:29:45.926Z,51.17
2017-08-09T23:32:18.520Z,51.15
2017-08-09T23:34:50.674Z,51.19
2017-08-09T23:37:23.008Z,51.19
2017-08-09T23:39:56.508Z,51.34
2017-08-09T23:42:30.046Z,51.30
2017-08-09T23:45:03.616Z,51.37
2017-08-09T23:47:36.098Z,51.56
2017-08-09T23:50:08.088Z,51.55
2017-08-09T23:52:41.706Z,51.61
2017-08-09T23:55:13.744Z,51.66
2017-08-09T23:57:45.936Z,51.73
